Time;durP1;ratioP1;P1;durP2;ratioP2;P2;SDS_P1;SDS_P2;PMS_P1;PMS_P2;Temp;Humidity;BMP_temperature;BMP_pressure;BME280_temperature;BME280_humidity;BME280_pressure;Samples;Min_cycle;Max_cycle;Signal;HPM_P1;HPM_P2
2022/07/18 00:01:04;;;;;;;1999.90;999.90;;;;;;;15.78;61.65;100019.00;8284454;28;20608;-79
2022/07/18 00:05:06;;;;;;;1999.90;999.90;;;;;;;15.76;61.89;100026.00;8299868;28;20050;-79
2022/07/18 00:09:08;;;;;;;1999.90;999.90;;;;;;;15.73;61.53;100021.69;8278570;28;20048;-79
2022/07/18 00:13:10;;;;;;;1999.90;999.90;;;;;;;15.66;61.40;100026.16;8264623;28;20057;-79
2022/07/18 00:17:12;;;;;;;1999.90;999.90;;;;;;;15.54;61.17;100023.69;8274859;28;20345;-79
2022/07/18 00:21:14;;;;;;;1999.90;999.90;;;;;;;15.50;60.77;100019.38;8281188;28;20042;-79
2022/07/18 00:25:15;;;;;;;1999.90;999.90;;;;;;;15.47;61.44;100019.44;8271047;28;20157;-79
2022/07/18 00:29:17;;;;;;;1999.90;999.90;;;;;;;15.40;61.48;100023.00;8285784;28;20129;-79
2022/07/18 00:33:19;;;;;;;1999.90;999.90;;;;;;;15.34;61.52;100015.25;8295679;28;20307;-79
2022/07/18 00:37:21;;;;;;;1999.90;999.90;;;;;;;15.24;61.68;100011.03;8280708;28;20061;-79
2022/07/18 00:41:23;;;;;;;1999.90;999.90;;;;;;;15.17;62.35;100015.47;8291347;28;20068;-79
2022/07/18 00:45:26;;;;;;;1999.90;999.90;;;;;;;15.13;62.03;100015.53;8287812;28;20433;-80
2022/07/18 00:49:28;;;;;;;1999.90;999.90;;;;;;;15.09;60.97;100015.59;8292273;28;20046;-80
2022/07/18 00:53:30;;;;;;;1999.90;999.90;;;;;;;15.06;61.88;100018.22;8270160;28;20042;-80
2022/07/18 00:57:31;;;;;;;1999.90;999.90;;;;;;;15.04;62.53;100006.06;8292687;28;20053;-79
2022/07/18 01:01:47;;;;;;;1999.90;999.90;;;;;;;14.93;63.38;100013.19;8271501;28;20054;-80
2022/07/18 01:05:49;;;;;;;1999.90;999.90;;;;;;;14.87;63.47;100014.09;8251213;28;20128;-79
2022/07/18 01:09:50;;;;;;;1999.90;999.90;;;;;;;14.82;63.83;100008.06;8275877;28;20037;-79
2022/07/18 01:13:53;;;;;;;1999.90;999.90;;;;;;;14.79;64.28;100015.94;8291686;28;20882;-80
2022/07/18 01:17:55;;;;;;;1999.90;999.90;;;;;;;14.75;63.83;100007.28;8285904;28;20046;-79
2022/07/18 01:21:57;;;;;;;1999.90;999.90;;;;;;;14.72;63.89;100004.72;8292064;28;20057;-79
2022/07/18 01:25:58;;;;;;;1999.90;999.90;;;;;;;14.68;64.26;100002.13;8290408;28;20133;-80
2022/07/18 01:30:00;;;;;;;1999.90;999.90;;;;;;;14.58;65.17;99996.16;8281073;28;20054;-80
2022/07/18 01:34:02;;;;;;;1999.90;999.90;;;;;;;14.55;65.48;100000.56;8290304;28;20504;-80
2022/07/18 01:38:04;;;;;;;1999.90;999.90;;;;;;;14.40;65.78;100002.41;8273864;28;20038;-79
2022/07/18 01:42:08;;;;;;;1999.90;999.90;;;;;;;14.36;66.12;100002.44;8298249;28;20057;-80
2022/07/18 01:46:10;;;;;;;1999.90;999.90;;;;;;;14.31;65.00;100014.69;8287192;28;20038;-79
2022/07/18 01:50:14;;;;;;;1999.90;999.90;;;;;;;14.24;65.08;100006.03;8300950;28;20064;-79
2022/07/18 01:54:18;;;;;;;1999.90;999.90;;;;;;;14.18;64.62;100008.69;8286860;28;20120;-80
2022/07/18 01:58:20;;;;;;;1999.90;999.90;;;;;;;14.12;65.51;100012.22;8279132;28;20073;-79
2022/07/18 02:02:21;;;;;;;1999.90;999.90;;;;;;;14.06;66.54;100001.00;8280124;28;20054;-79
2022/07/18 02:06:23;;;;;;;1999.90;999.90;;;;;;;14.08;67.13;100002.69;8292565;28;20103;-79
2022/07/18 02:10:25;;;;;;;1999.90;999.90;;;;;;;14.07;66.95;99994.88;8279967;28;20117;-79
2022/07/18 02:14:26;;;;;;;1999.90;999.90;;;;;;;14.04;67.73;99995.78;8298381;28;20433;-79
2022/07/18 02:18:31;;;;;;;1999.90;999.90;;;;;;;13.96;67.89;100002.78;8289659;28;20057;-80
2022/07/18 02:22:38;;;;;;;1999.90;999.90;;;;;;;13.94;68.34;100003.69;8293560;28;20042;-79
2022/07/18 02:26:39;;;;;;;1999.90;999.90;;;;;;;13.87;68.54;100001.16;8295784;28;20129;-79
2022/07/18 02:30:41;;;;;;;1999.90;999.90;;;;;;;13.80;68.63;99998.56;8302684;28;20069;-79
2022/07/18 02:34:42;;;;;;;1999.90;999.90;;;;;;;13.74;68.61;99994.28;8283863;28;20081;-79
2022/07/18 02:38:44;;;;;;;1999.90;999.90;;;;;;;13.74;68.81;99993.41;8283996;28;20045;-79
2022/07/18 02:42:45;;;;;;;1999.90;999.90;;;;;;;13.71;68.67;99993.44;8268011;28;20081;-79
2022/07/18 02:46:47;;;;;;;1999.90;999.90;;;;;;;13.65;68.96;99988.28;8280931;28;20089;-80
2022/07/18 02:50:49;;;;;;;1999.90;999.90;;;;;;;13.59;69.60;99997.84;8235505;28;20038;-79
2022/07/18 02:54:51;;;;;;;1999.90;999.90;;;;;;;13.54;69.97;99999.63;8235041;28;20046;-79
2022/07/18 02:58:52;;;;;;;1999.90;999.90;;;;;;;13.48;70.11;100002.31;8237773;28;20049;-79
2022/07/18 03:02:54;;;;;;;1999.90;999.90;;;;;;;13.42;70.15;99999.72;8249540;28;20145;-80
2022/07/18 03:06:55;;;;;;;1999.90;999.90;;;;;;;13.34;70.10;99998.91;8246014;28;20129;-79
2022/07/18 03:10:57;;;;;;;1999.90;999.90;;;;;;;13.36;70.51;100001.50;8230653;28;20363;-79
2022/07/18 03:14:59;;;;;;;1999.90;999.90;;;;;;;13.28;70.91;100001.53;8247082;28;20435;-79
2022/07/18 03:19:01;;;;;;;1999.90;999.90;;;;;;;13.25;70.98;100002.41;8260016;28;20050;-79
2022/07/18 03:23:07;;;;;;;1999.90;999.90;;;;;;;13.23;71.17;99998.94;8259955;28;20121;-79
2022/07/18 03:27:09;;;;;;;1999.90;999.90;;;;;;;13.17;71.63;99992.88;8264004;28;20109;-79
2022/07/18 03:31:11;;;;;;;1999.90;999.90;;;;;;;13.15;71.45;99994.63;8261607;28;20069;-79
2022/07/18 03:35:14;;;;;;;1999.90;999.90;;;;;;;13.10;71.03;100002.44;8283771;28;20064;-79
2022/07/18 03:39:15;;;;;;;;;;;;;;;13.04;71.59;99999.88;8298116;28;20048;-79
2022/07/18 03:43:17;;;;;;;1999.90;999.90;;;;;;;13.06;71.09;100000.75;8287243;28;20020;-79
2022/07/18 03:47:19;;;;;;;1999.90;999.90;;;;;;;13.05;71.59;100003.34;8292819;28;20141;-79
2022/07/18 03:51:21;;;;;;;1999.90;999.90;;;;;;;13.02;71.93;100006.84;8273856;28;20144;-78
2022/07/18 03:55:22;;;;;;;1999.90;999.90;;;;;;;12.99;72.19;100005.13;8291185;28;20045;-77
2022/07/18 03:59:24;;;;;;;1999.90;999.90;;;;;;;12.88;72.00;100019.06;8287110;28;20048;-78
2022/07/18 04:03:25;;;;;;;1999.90;999.90;;;;;;;12.87;71.66;100017.34;8279818;28;20085;-77
2022/07/18 04:07:27;;;;;;;1999.90;999.90;;;;;;;12.88;71.81;100019.06;8289085;28;20108;-77
2022/07/18 04:11:29;;;;;;;1999.90;999.90;;;;;;;12.85;72.15;100017.34;8273208;28;20982;-77
2022/07/18 04:15:30;;;;;;;1999.90;999.90;;;;;;;12.80;72.00;100021.72;8286849;28;20045;-77
2022/07/18 04:19:34;;;;;;;1999.90;999.90;;;;;;;12.84;72.10;100015.59;8290410;28;20073;-77
2022/07/18 04:23:39;;;;;;;1999.90;999.90;;;;;;;12.84;72.09;100020.81;8257775;28;20353;-77
2022/07/18 04:27:43;;;;;;;1999.90;999.90;;;;;;;12.88;72.49;100016.47;8296840;28;20731;-78
2022/07/18 04:31:45;;;;;;;1999.90;999.90;;;;;;;12.89;72.29;100011.25;8271798;28;20069;-77
2022/07/18 04:35:47;;;;;;;1999.90;999.90;;;;;;;12.86;71.95;100021.69;8269829;28;20058;-77
2022/07/18 04:39:49;;;;;;;1999.90;999.90;;;;;;;12.81;72.68;100020.84;8259283;28;20042;-78
2022/07/18 04:43:51;;;;;;;1999.90;999.90;;;;;;;12.89;73.30;100021.66;8260009;28;20050;-78
2022/07/18 04:47:54;;;;;;;;;;;;;;;13.02;73.01;100019.88;8256396;28;20506;-78
2022/07/18 04:51:56;;;;;;;1999.90;999.90;;;;;;;13.22;71.56;100014.59;8253980;28;19929;-78
2022/07/18 04:56:00;;;;;;;1999.90;999.90;;;;;;;13.40;71.22;100008.44;8250363;28;20141;-81
2022/07/18 05:00:19;;;;;;;1999.90;999.90;;;;;;;13.56;70.67;100007.44;8271069;28;20042;-79
2022/07/18 05:04:21;;;;;;;1999.90;999.90;;;;;;;13.77;70.60;100016.88;8273687;28;20058;-82
2022/07/18 05:08:23;;;;;;;1999.90;999.90;;;;;;;14.00;70.22;100016.69;8261962;28;20054;-82
2022/07/18 05:12:25;;;;;;;1999.90;999.90;;;;;;;14.25;69.61;100013.00;8262279;28;20061;-81
2022/07/18 05:16:26;;;;;;;1999.90;999.90;;;;;;;14.51;68.81;100010.16;8258462;28;20303;-81
2022/07/18 05:20:28;;;;;;;1999.90;999.90;;;;;;;14.76;68.10;100016.00;8261067;28;20058;-80
2022/07/18 05:24:29;;;;;;;1999.90;999.90;;;;;;;15.01;68.21;100014.81;8244265;28;20061;-81
2022/07/18 05:28:31;;;;;;;1999.90;999.90;;;;;;;15.28;67.67;100016.22;8258280;28;20038;-79
2022/07/18 05:32:33;;;;;;;1999.90;999.90;;;;;;;15.54;66.98;100021.06;8257566;28;20200;-79
2022/07/18 05:36:36;;;;;;;1999.90;999.90;;;;;;;15.83;65.69;100022.44;8229927;28;20050;-80
2022/07/18 05:40:37;;;;;;;1999.90;999.90;;;;;;;16.14;64.02;100023.63;8243313;28;20278;-81
2022/07/18 05:44:39;;;;;;;1999.90;999.90;;;;;;;16.48;63.42;100025.66;8260380;28;20046;-81
2022/07/18 05:48:41;;;;;;;1999.90;999.90;;;;;;;16.85;62.87;100018.88;8249499;28;20451;-81
2022/07/18 05:52:42;;;;;;;1999.90;999.90;;;;;;;17.18;61.14;100014.69;8258784;28;20034;-81
2022/07/18 05:56:49;;;;;;;1999.90;999.90;;;;;;;17.55;59.87;100010.38;8265848;28;20058;-81
2022/07/18 06:00:50;;;;;;;1999.90;999.90;;;;;;;17.94;59.56;100004.22;8242905;28;20065;-81
2022/07/18 06:04:52;;;;;;;1999.90;999.90;;;;;;;18.52;57.50;99997.47;8247954;28;20053;-81
2022/07/18 06:09:13;;;;;;;1999.90;999.90;;;;;;;19.20;56.00;100001.69;8266579;28;20057;-81
2022/07/18 06:13:15;;;;;;;1999.90;999.90;;;;;;;19.70;54.66;100004.56;8254760;28;20086;-82
2022/07/18 06:17:16;;;;;;;1999.90;999.90;;;;;;;20.18;53.28;100002.13;8253685;28;20748;-81
2022/07/18 06:21:19;;;;;;;1999.90;999.90;;;;;;;20.73;51.90;100003.72;8268782;28;20042;-77
2022/07/18 06:25:20;;;;;;;1999.90;999.90;;;;;;;21.28;49.76;99998.19;8223551;28;20038;-79
2022/07/18 06:29:22;;;;;;;1999.90;999.90;;;;;;;21.92;48.70;99996.50;8258931;28;20096;-77
2022/07/18 06:33:24;;;;;;;1999.90;999.90;;;;;;;22.56;46.09;99993.78;8242685;28;20043;-78
2022/07/18 06:37:25;;;;;;;1999.90;999.90;;;;;;;23.10;44.87;99984.31;8241262;28;20706;-79
2022/07/18 06:41:27;;;;;;;1999.90;999.90;;;;;;;23.43;40.95;99986.31;8243812;28;20066;-79
2022/07/18 06:45:28;;;;;;;1999.90;999.90;;;;;;;24.00;40.53;99990.59;8258727;28;20042;-79
2022/07/18 06:49:30;;;;;;;1999.90;999.90;;;;;;;24.43;39.10;99998.22;8246139;28;20041;-79
2022/07/18 06:53:32;;;;;;;1999.90;999.90;;;;;;;24.74;37.64;99977.06;8262291;28;20833;-77
2022/07/18 06:57:34;;;;;;;1999.90;999.90;;;;;;;25.08;36.91;99981.44;8261991;28;20350;-78
2022/07/18 07:01:35;;;;;;;;;;;;;;;25.39;34.72;99979.75;8256456;28;20145;-77
2022/07/18 07:05:38;;;;;;;1999.90;999.90;;;;;;;25.65;33.66;99979.13;8258700;28;19932;-79
2022/07/18 07:09:39;;;;;;;1999.90;999.90;;;;;;;25.92;33.29;99976.72;8258993;28;20057;-79
2022/07/18 07:13:41;;;;;;;;;;;;;;;26.33;32.36;99978.75;8233728;28;20053;-79
2022/07/18 07:17:42;;;;;;;1999.90;999.90;;;;;;;26.67;31.28;99978.44;8239949;28;19980;-79
2022/07/18 07:21:44;;;;;;;;;;;;;;;26.94;30.85;99977.69;8244646;28;20125;-79
2022/07/18 07:25:45;;;;;;;1999.90;999.90;;;;;;;27.21;31.03;99983.13;8260593;28;19937;-79
2022/07/18 07:29:47;;;;;;;1999.90;999.90;;;;;;;27.45;29.60;99978.88;8243683;28;20447;-79
2022/07/18 07:33:49;;;;;;;1999.90;999.90;;;;;;;27.72;28.84;99972.72;8240449;28;20074;-80
2022/07/18 07:38:00;;;;;;;1999.90;999.90;;;;;;;27.83;27.72;99963.06;8243998;28;20450;-78
2022/07/18 07:42:01;;;;;;;1999.90;999.90;;;;;;;27.92;27.04;99962.44;8248058;28;20078;-78
2022/07/18 07:46:05;;;;;;;1999.90;999.90;;;;;;;28.05;26.90;99959.81;8227587;28;20056;-78
2022/07/18 07:50:09;;;;;;;1999.90;999.90;;;;;;;28.12;26.93;99966.44;8259608;28;20050;-78
2022/07/18 07:54:10;;;;;;;1999.90;999.90;;;;;;;28.24;27.00;99962.06;8242151;28;20084;-78
2022/07/18 07:58:12;;;;;;;1999.90;999.90;;;;;;;28.43;26.72;99964.38;8259322;28;20053;-78
2022/07/18 08:02:14;;;;;;;1999.90;999.90;;;;;;;28.73;26.62;99964.91;8238437;28;20058;-78
2022/07/18 08:06:16;;;;;;;1999.90;999.90;;;;;;;28.98;26.56;99956.03;8246617;28;20065;-78
2022/07/18 08:10:18;;;;;;;1999.90;999.90;;;;;;;29.18;26.25;99960.78;8240117;28;20424;-78
2022/07/18 08:14:20;;;;;;;1999.90;999.90;;;;;;;29.36;25.69;99953.25;8259271;28;20046;-78
2022/07/18 08:18:21;;;;;;;1999.90;999.90;;;;;;;29.66;26.17;99946.66;8245382;28;20068;-77
2022/07/18 08:22:23;;;;;;;1999.90;999.90;;;;;;;29.94;25.12;99948.94;8253493;28;20438;-77
2022/07/18 08:26:25;;;;;;;1999.90;999.90;;;;;;;30.11;24.31;99949.50;8266678;28;20154;-77
2022/07/18 08:30:28;;;;;;;1999.90;999.90;;;;;;;30.36;24.65;99942.16;8239955;28;20129;-78
2022/07/18 08:34:30;;;;;;;1999.90;999.90;;;;;;;30.52;24.36;99946.31;8260560;28;20100;-77
2022/07/18 08:38:32;;;;;;;1999.90;999.90;;;;;;;30.64;24.12;99938.19;8275440;28;20053;-77
2022/07/18 08:42:34;;;;;;;1999.90;999.90;;;;;;;30.82;23.93;99938.56;8284101;28;20120;-77
2022/07/18 08:46:50;;;;;;;1999.90;999.90;;;;;;;31.02;23.58;99939.66;8269747;28;20108;-78
2022/07/18 08:50:51;;;;;;;1999.90;999.90;;;;;;;31.25;23.68;99936.00;8287855;28;20362;-77
2022/07/18 08:54:53;;;;;;;1999.90;999.90;;;;;;;31.39;23.18;99936.69;8267646;28;20498;-78
2022/07/18 08:59:02;;;;;;;1999.90;999.90;;;;;;;31.46;22.94;99935.22;8300555;28;20056;-77
2022/07/18 09:03:04;;;;;;;1999.90;999.90;;;;;;;31.65;23.06;99938.06;8282550;28;20053;-77
2022/07/18 09:07:08;;;;;;;1999.90;999.90;;;;;;;31.73;22.91;99935.63;8302931;28;20580;-78
2022/07/18 09:11:11;;;;;;;1999.90;999.90;;;;;;;31.92;22.89;99939.44;8286557;28;20068;-76
2022/07/18 09:15:32;;;;;;;1999.90;999.90;;;;;;;32.20;22.40;99943.34;8252816;28;20046;-77
2022/07/18 09:19:36;;;;;;;1999.90;999.90;;;;;;;32.35;21.26;99936.69;8271738;28;20061;-77
2022/07/18 09:23:40;;;;;;;1999.90;999.90;;;;;;;32.50;21.32;99931.78;8271514;28;20074;-76
2022/07/18 09:27:44;;;;;;;1999.90;999.90;;;;;;;32.61;20.85;99921.81;8297756;28;20066;-78
2022/07/18 09:31:50;;;;;;;1999.90;999.90;;;;;;;32.85;20.64;99926.91;8276343;28;20247;-77
2022/07/18 09:35:53;;;;;;;1999.90;999.90;;;;;;;32.98;20.58;99922.13;8292533;28;20069;-77
2022/07/18 09:40:14;;;;;;;1999.90;999.90;;;;;;;33.01;20.14;99916.47;8292264;28;20057;-77
2022/07/18 09:44:21;;;;;;;1999.90;999.90;;;;;;;33.11;19.72;99907.59;8284094;28;20535;-79
2022/07/18 09:48:25;;;;;;;1999.90;999.90;;;;;;;33.22;20.21;99907.47;8284761;28;20072;-79
2022/07/18 09:52:26;;;;;;;1999.90;999.90;;;;;;;33.34;19.71;99906.38;8302678;28;20042;-79
2022/07/18 09:56:30;;;;;;;1999.90;999.90;;;;;;;33.47;19.73;99906.13;8277576;28;20451;-79
2022/07/18 10:00:34;;;;;;;1999.90;999.90;;;;;;;33.48;18.95;99915.91;8292499;28;20421;-80
2022/07/18 10:04:36;;;;;;;1999.90;999.90;;;;;;;33.35;18.73;99913.47;8280653;28;20046;-79
2022/07/18 10:08:37;;;;;;;1999.90;999.90;;;;;;;33.44;19.05;99903.72;8281912;28;20085;-79
2022/07/18 10:12:40;;;;;;;1999.90;999.90;;;;;;;33.57;18.90;99902.41;8261182;28;20045;-80
2022/07/18 10:16:43;;;;;;;1999.90;999.90;;;;;;;33.64;17.77;99902.72;8295389;28;20061;-79
2022/07/18 10:21:02;;;;;;;1999.90;999.90;;;;;;;33.72;18.48;99893.94;8298900;28;20038;-80
2022/07/18 10:25:05;;;;;;;1999.90;999.90;;;;;;;33.83;17.59;99891.94;8294022;28;20366;-79
2022/07/18 10:29:07;;;;;;;1999.90;999.90;;;;;;;33.86;18.23;99883.59;8294145;28;20119;-78
2022/07/18 10:33:36;;;;;;;1999.90;999.90;;;;;;;34.02;18.88;99879.47;8276891;28;20065;-79
2022/07/18 10:37:38;;;;;;;1999.90;999.90;;;;;;;34.10;18.82;99883.13;8263046;28;20045;-79
2022/07/18 10:41:39;;;;;;;1999.90;999.90;;;;;;;34.20;18.81;99883.13;8247544;28;20046;-80
2022/07/18 10:45:47;;;;;;;1999.90;999.90;;;;;;;34.36;18.75;99875.31;8239840;28;20793;-78
2022/07/18 10:49:57;;;;;;;1999.90;999.90;;;;;;;34.44;18.93;99875.41;8242346;28;20034;-78
2022/07/18 10:54:07;;;;;;;1999.90;999.90;;;;;;;34.45;19.47;99874.41;8256519;28;20129;-78
2022/07/18 10:58:08;;;;;;;1999.90;999.90;;;;;;;34.40;18.46;99874.00;8257070;28;20129;-78
2022/07/18 11:02:10;;;;;;;1999.90;999.90;;;;;;;34.53;19.17;99881.78;8269099;28;20413;-79
2022/07/18 11:06:12;;;;;;;1999.90;999.90;;;;;;;34.61;18.48;99884.56;8258572;28;20058;-78
2022/07/18 11:10:13;;;;;;;1999.90;999.90;;;;;;;34.51;17.28;99873.81;8257939;28;20038;-78
2022/07/18 11:14:53;;;;;;;1999.90;999.90;;;;;;;34.50;18.48;99877.53;8224817;28;20081;-79
2022/07/18 11:18:55;;;;;;;1999.90;999.90;;;;;;;34.62;18.53;99875.47;8266280;28;20077;-78
2022/07/18 11:22:57;;;;;;;1999.90;999.90;;;;;;;34.75;18.32;99869.72;8256119;28;20049;-79
2022/07/18 11:27:04;;;;;;;1999.90;999.90;;;;;;;34.91;18.92;99872.66;8253665;28;20121;-79
2022/07/18 11:31:08;;;;;;;1999.90;999.90;;;;;;;34.99;18.31;99861.09;8226264;28;20053;-78
2022/07/18 11:35:11;;;;;;;1999.90;999.90;;;;;;;34.93;18.44;99851.75;8268687;28;20054;-78
2022/07/18 11:39:13;;;;;;;1999.90;999.90;;;;;;;34.82;17.93;99850.09;8239389;28;20034;-77
2022/07/18 11:43:26;;;;;;;1999.90;999.90;;;;;;;35.01;18.44;99842.91;8256239;28;20355;-78
2022/07/18 11:47:27;;;;;;;1999.90;999.90;;;;;;;35.11;17.88;99838.28;8237685;28;20074;-78
2022/07/18 11:51:37;;;;;;;1999.90;999.90;;;;;;;35.12;17.96;99834.59;8253663;28;20042;-78
2022/07/18 11:55:38;;;;;;;1999.90;999.90;;;;;;;35.27;17.78;99840.31;8255027;28;20043;-78
2022/07/18 11:59:43;;;;;;;1999.90;999.90;;;;;;;35.41;16.99;99837.97;8236741;28;20038;-79
2022/07/18 12:03:48;;;;;;;1999.90;999.90;;;;;;;35.24;16.78;99830.66;8234953;28;20114;-78
2022/07/18 12:07:49;;;;;;;1999.90;999.90;;;;;;;35.38;16.28;99824.78;8232172;28;20339;-77
2022/07/18 12:11:51;;;;;;;1999.90;999.90;;;;;;;35.40;17.92;99825.47;8235075;28;20351;-76
2022/07/18 12:16:31;;;;;;;1999.90;999.90;;;;;;;35.43;17.54;99813.50;8247123;28;20065;-77
2022/07/18 12:20:33;;;;;;;1999.90;999.90;;;;;;;35.57;18.18;99809.38;8247748;28;20582;-77
2022/07/18 12:24:40;;;;;;;1999.90;999.90;;;;;;;35.79;17.41;99816.97;8232406;28;20081;-76
2022/07/18 12:28:41;;;;;;;1999.90;999.90;;;;;;;35.82;17.53;99808.56;8234231;28;20047;-76
2022/07/18 12:33:09;;;;;;;1999.90;999.90;;;;;;;35.91;17.43;99818.47;8228921;28;20058;-76
2022/07/18 12:37:11;;;;;;;1999.90;999.90;;;;;;;35.92;16.56;99817.44;8243843;28;20146;-79
2022/07/18 12:41:14;;;;;;;1999.90;999.90;;;;;;;35.64;16.42;99810.44;8232681;28;20054;-78
2022/07/18 12:45:15;;;;;;;1999.90;999.90;;;;;;;35.76;18.54;99801.09;8232395;28;20065;-78
2022/07/18 12:49:17;;;;;;;1999.90;999.90;;;;;;;35.90;17.79;99796.97;8235580;28;20056;-79
2022/07/18 12:53:18;;;;;;;1999.90;999.90;;;;;;;36.09;17.85;99794.06;8221763;28;20068;-78
2022/07/18 12:57:21;;;;;;;1999.90;999.90;;;;;;;36.25;17.48;99795.97;8235558;28;20060;-78
2022/07/18 13:01:22;;;;;;;1999.90;999.90;;;;;;;36.36;17.11;99792.19;8227240;28;20069;-79
2022/07/18 13:05:26;;;;;;;1999.90;999.90;;;;;;;36.41;17.02;99782.56;8225150;28;20088;-78
2022/07/18 13:09:28;;;;;;;1999.90;999.90;;;;;;;36.20;16.13;99784.81;8245154;28;20129;-80
2022/07/18 13:13:30;;;;;;;1999.90;999.90;;;;;;;35.94;16.19;99774.03;8245984;28;20058;-78
2022/07/18 13:17:32;;;;;;;1999.90;999.90;;;;;;;35.87;16.46;99764.84;8227732;28;20092;-79
2022/07/18 13:21:34;;;;;;;1999.90;999.90;;;;;;;36.01;17.44;99766.97;8236236;28;20049;-79
2022/07/18 13:25:36;;;;;;;1999.90;999.90;;;;;;;36.21;16.74;99767.56;8244666;28;20046;-79
2022/07/18 13:29:37;;;;;;;1999.90;999.90;;;;;;;36.36;17.11;99759.72;8256481;28;20049;-79
2022/07/18 13:33:39;;;;;;;1999.90;999.90;;;;;;;36.30;16.14;99745.81;8238171;28;20140;-77
2022/07/18 13:37:41;;;;;;;1999.90;999.90;;;;;;;36.45;17.37;99748.78;8287054;28;20149;-78
2022/07/18 13:41:43;;;;;;;1999.90;999.90;;;;;;;36.56;16.78;99744.91;8291089;28;20045;-78
2022/07/18 13:45:45;;;;;;;1999.90;999.90;;;;;;;36.52;16.15;99736.28;8273974;28;20454;-79
2022/07/18 13:49:46;;;;;;;1999.90;999.90;;;;;;;36.66;16.45;99733.97;8277802;28;20073;-78
2022/07/18 13:53:48;;;;;;;1999.90;999.90;;;;;;;36.77;16.54;99739.03;8260446;28;20069;-79
2022/07/18 13:57:50;;;;;;;1999.90;999.90;;;;;;;36.72;16.23;99733.28;8259910;28;20872;-79
2022/07/18 14:01:52;;;;;;;1999.90;999.90;;;;;;;36.54;16.10;99719.88;8285460;28;20046;-76
2022/07/18 14:05:54;;;;;;;1999.90;999.90;;;;;;;36.48;16.36;99723.25;8290331;28;20049;-77
2022/07/18 14:09:55;;;;;;;1999.90;999.90;;;;;;;36.73;16.79;99716.88;8280808;28;20145;-78
2022/07/18 14:13:57;;;;;;;1999.90;999.90;;;;;;;36.73;16.75;99714.16;8262445;28;20407;-79
2022/07/18 14:18:00;;;;;;;1999.90;999.90;;;;;;;36.70;16.61;99708.25;8268604;28;20054;-78
2022/07/18 14:22:01;;;;;;;1999.90;999.90;;;;;;;36.78;16.60;99706.38;8293799;28;20449;-77
2022/07/18 14:26:03;;;;;;;1999.90;999.90;;;;;;;36.86;16.62;99701.03;8264838;28;20046;-79
2022/07/18 14:30:07;;;;;;;1999.90;999.90;;;;;;;36.90;16.68;99702.38;8268356;28;20678;-78
2022/07/18 14:34:08;;;;;;;1999.90;999.90;;;;;;;36.98;17.04;99697.97;8290081;28;20065;-78
2022/07/18 14:38:10;;;;;;;1999.90;999.90;;;;;;;36.92;16.13;99696.78;8274243;28;20128;-78
2022/07/18 14:42:12;;;;;;;1999.90;999.90;;;;;;;36.78;15.76;99690.13;8290278;28;20124;-79
2022/07/18 14:46:14;;;;;;;1999.90;999.90;;;;;;;36.62;16.31;99690.13;8285053;28;20061;-78
2022/07/18 14:50:16;;;;;;;1999.90;999.90;;;;;;;36.71;16.65;99696.41;8272184;28;20038;-78
2022/07/18 14:54:17;;;;;;;1999.90;999.90;;;;;;;36.55;15.63;99686.41;8290186;28;20073;-79
2022/07/18 14:58:18;;;;;;;1999.90;999.90;;;;;;;36.49;15.96;99687.91;8255337;28;20717;-79
2022/07/18 15:02:20;;;;;;;1999.90;999.90;;;;;;;36.61;16.61;99683.00;8266403;28;20156;-78
2022/07/18 15:06:22;;;;;;;1999.90;999.90;;;;;;;36.63;15.98;99683.72;8271369;28;20427;-79
2022/07/18 15:10:23;;;;;;;1999.90;999.90;;;;;;;36.80;16.58;99676.47;8271432;28;20045;-78
2022/07/18 15:14:25;;;;;;;1999.90;999.90;;;;;;;37.02;16.85;99678.53;8288927;28;20349;-78
2022/07/18 15:18:27;;;;;;;1999.90;999.90;;;;;;;37.05;16.56;99670.06;8281469;28;20149;-78
2022/07/18 15:22:29;;;;;;;1999.90;999.90;;;;;;;37.17;16.49;99660.59;8284344;28;20056;-78
2022/07/18 15:26:30;;;;;;;1999.90;999.90;;;;;;;37.22;16.47;99662.78;8250890;28;20140;-76
2022/07/18 15:30:32;;;;;;;1999.90;999.90;;;;;;;37.35;16.68;99663.13;8285611;28;20049;-76
2022/07/18 15:34:49;;;;;;;1999.90;999.90;;;;;;;37.40;16.68;99659.91;8266483;28;20061;-76
2022/07/18 15:38:50;;;;;;;1999.90;999.90;;;;;;;37.41;16.08;99651.59;8281589;28;20046;-76
2022/07/18 15:42:52;;;;;;;1999.90;999.90;;;;;;;37.53;15.86;99660.22;8278380;28;20462;-76
2022/07/18 15:46:54;;;;;;;1999.90;999.90;;;;;;;37.53;16.47;99641.25;8263336;28;20152;-76
2022/07/18 15:50:55;;;;;;;1999.90;999.90;;;;;;;37.47;16.01;99645.47;8282366;28;20474;-76
2022/07/18 15:54:57;;;;;;;1999.90;999.90;;;;;;;37.45;16.54;99636.69;8262355;28;20524;-76
2022/07/18 15:58:58;;;;;;;1999.90;999.90;;;;;;;37.47;15.63;99631.06;8280444;28;20046;-76
2022/07/18 16:03:00;;;;;;;1999.90;999.90;;;;;;;37.39;15.37;99629.25;8278220;28;20541;-76
2022/07/18 16:07:02;;;;;;;1999.90;999.90;;;;;;;37.27;14.74;99621.66;8295471;28;20084;-76
2022/07/18 16:11:04;;;;;;;1999.90;999.90;;;;;;;37.23;15.17;99615.69;8260443;28;20564;-75
2022/07/18 16:15:06;;;;;;;1999.90;999.90;;;;;;;37.22;15.74;99612.16;8295341;28;20806;-76
2022/07/18 16:19:09;;;;;;;1999.90;999.90;;;;;;;36.99;15.65;99605.75;8260802;28;20092;-76
2022/07/18 16:23:10;;;;;;;1999.90;999.90;;;;;;;36.79;15.86;99599.84;8275950;28;20050;-75
2022/07/18 16:27:12;;;;;;;1999.90;999.90;;;;;;;36.56;16.52;99602.34;8261730;28;20840;-76
2022/07/18 16:31:14;;;;;;;1999.90;999.90;;;;;;;36.35;16.95;99593.88;8281185;28;20125;-76
2022/07/18 16:35:16;;;;;;;1999.90;999.90;;;;;;;36.10;17.73;99581.31;8276693;28;20045;-75
2022/07/18 16:39:18;;;;;;;1999.90;999.90;;;;;;;35.72;18.76;99586.19;8282808;28;20528;-75
2022/07/18 16:43:21;;;;;;;1999.90;999.90;;;;;;;35.27;19.17;99575.66;8262799;28;20096;-75
2022/07/18 16:47:22;;;;;;;1999.90;999.90;;;;;;;34.82;20.19;99580.22;8276311;28;20054;-75
2022/07/18 16:51:25;;;;;;;1999.90;999.90;;;;;;;34.38;20.94;99573.97;8281096;28;20694;-75
2022/07/18 16:55:27;;;;;;;1999.90;999.90;;;;;;;34.04;20.65;99570.22;8282713;28;20054;-75
2022/07/18 16:59:29;;;;;;;1999.90;999.90;;;;;;;33.75;21.33;99568.50;8279621;28;20129;-75
2022/07/18 17:03:32;;;;;;;1999.90;999.90;;;;;;;33.48;22.00;99569.34;8278593;28;20050;-76
2022/07/18 17:07:35;;;;;;;1999.90;999.90;;;;;;;33.12;23.46;99562.09;8278819;28;20046;-75
2022/07/18 17:11:36;;;;;;;1999.90;999.90;;;;;;;32.82;22.85;99564.00;8263248;28;20041;-75
2022/07/18 17:15:39;;;;;;;1999.90;999.90;;;;;;;32.63;23.72;99572.91;8276933;28;20042;-75
2022/07/18 17:19:41;;;;;;;1999.90;999.90;;;;;;;32.39;23.94;99569.81;8278976;28;20042;-75
2022/07/18 17:23:45;;;;;;;1999.90;999.90;;;;;;;32.10;24.05;99559.84;8280100;28;20065;-75
2022/07/18 17:27:51;;;;;;;1999.90;999.90;;;;;;;31.93;24.65;99560.53;8279931;28;20057;-75
2022/07/18 17:31:53;;;;;;;1999.90;999.90;;;;;;;31.73;24.66;99561.47;8281584;28;20034;-75
2022/07/18 17:35:55;;;;;;;1999.90;999.90;;;;;;;31.60;24.62;99560.84;8278814;28;20058;-75
2022/07/18 17:39:58;;;;;;;1999.90;999.90;;;;;;;31.35;25.79;99560.34;8266122;28;20042;-75
2022/07/18 17:44:00;;;;;;;1999.90;999.90;;;;;;;31.23;25.42;99558.72;8280239;28;20049;-75
2022/07/18 17:48:02;;;;;;;1999.90;999.90;;;;;;;30.92;27.09;99555.16;8275985;28;20089;-75
2022/07/18 17:52:04;;;;;;;1999.90;999.90;;;;;;;30.66;27.43;99549.31;8281293;28;20042;-75
2022/07/18 17:56:06;;;;;;;1999.90;999.90;;;;;;;30.52;26.36;99555.84;8276556;28;20065;-75
2022/07/18 18:00:10;;;;;;;1999.90;999.90;;;;;;;30.37;28.11;99554.44;8271921;28;20050;-75